Hovedside
METAR-TAF:

METAR-TAF

Lufthavner :

Båtsfjord lufthavn

Båtsfjord, Norge

breddegrad: 70-38N, lengdegrad: 029-44E, høyde over havet: 10 m

Gjeldene værobservasjon

Denne rapporten ble laget for 52 minutter siden, klokken 05:50 UTC
Vind 11 kt fra Nordvest
Temperatur 1°C
Luftfuktighet 93%
Trykk 1006 hPa
Sikt 10 km eller mer
Få skyer i en høyde av 1300 ft
Spredte skyer i en høyde av 2000 ft
Brutte skyer i en høyde av 3400 ft
regnbyger i nærheten

METAR: ENBS 150550Z 31011KT 9999 VCSH FEW013 SCT020 BKN034 01/M00 Q1006

Tid: 07:42 (06:42 UTC)


TAF: fraværende

Værobservasjoner og værvarsel for over 4000 flyplasser (METAR- og TAF-rapporter).

Tilgjengelige stasjoner er representert av de røde og gule prikkene på kartet.

Hold musepekeren over prikken for å se navnet på stasjonen.

Klikk så for å se værobservasjoner og -varsler.

For å forandre kartet kan du klikke på den grønne knappen med svart kryss for å zoome inn, på den grønne knappen med strek for å zoome ut, eller på de grønne pilene for å se tilstøtende kart.


METAR-TAF: